createdAt,value
2017-08-03T00:01:24.071Z,20.77
2017-08-03T00:03:53.358Z,13.33
2017-08-03T00:06:22.644Z,10.17
2017-08-03T00:08:52.675Z,12.03
2017-08-03T00:11:21.986Z,14.10
2017-08-03T00:13:51.261Z,10.93
2017-08-03T00:16:20.523Z,12.53
2017-08-03T00:18:49.794Z,10.20
2017-08-03T00:21:19.061Z,11.57
2017-08-03T00:23:48.349Z,11.40
2017-08-03T00:26:17.885Z,8.63
2017-08-03T00:28:47.925Z,20.87
2017-08-03T00:31:17.243Z,6.60
2017-08-03T00:33:46.494Z,20.73
2017-08-03T00:36:15.742Z,10.43
2017-08-03T00:38:45.236Z,10.03
2017-08-03T00:41:14.492Z,11.93
2017-08-03T00:43:43.814Z,10.60
2017-08-03T00:46:13.867Z,8.83
2017-08-03T00:48:43.142Z,18.40
2017-08-03T00:51:12.453Z,9.93
2017-08-03T00:53:41.713Z,11.17
2017-08-03T00:56:10.981Z,14.97
2017-08-03T00:58:40.247Z,12.67
2017-08-03T01:01:10.301Z,22.77
2017-08-03T01:03:39.552Z,16.80
2017-08-03T01:06:08.845Z,23.63
2017-08-03T01:08:38.152Z,9.43
2017-08-03T01:11:07.391Z,14.13
2017-08-03T01:13:36.865Z,8.87
2017-08-03T01:16:06.907Z,10.10
2017-08-03T01:18:36.194Z,7.90
2017-08-03T01:21:05.453Z,7.60
2017-08-03T01:23:35.037Z,17.40
2017-08-03T01:26:04.317Z,14.60
2017-08-03T01:28:33.570Z,14.47
2017-08-03T01:31:03.643Z,13.50
2017-08-03T01:33:33.456Z,16.20
2017-08-03T01:36:02.680Z,9.90
2017-08-03T01:38:32.950Z,15.00
2017-08-03T01:41:03.049Z,8.73
2017-08-03T01:43:32.317Z,15.70
2017-08-03T01:46:01.850Z,20.23
2017-08-03T01:48:31.126Z,9.30
2017-08-03T01:51:00.450Z,21.07
2017-08-03T01:53:29.830Z,17.50
2017-08-03T01:55:59.092Z,16.40
2017-08-03T01:58:29.161Z,12.03
2017-08-03T02:00:58.419Z,16.63
2017-08-03T02:03:27.672Z,14.20
2017-08-03T02:05:56.972Z,15.40
2017-08-03T02:08:26.213Z,19.30
2017-08-03T02:10:55.506Z,12.23
2017-08-03T02:13:25.522Z,14.60
2017-08-03T02:15:54.800Z,19.87
2017-08-03T02:18:24.066Z,12.20
2017-08-03T02:20:53.338Z,16.10
2017-08-03T02:23:23.461Z,17.00
2017-08-03T02:25:53.599Z,14.73
2017-08-03T02:28:22.915Z,13.30
2017-08-03T02:30:52.342Z,9.00
2017-08-03T02:33:21.606Z,15.20
2017-08-03T02:35:50.993Z,12.37
2017-08-03T02:38:21.022Z,12.90
2017-08-03T02:40:50.354Z,23.60
2017-08-03T02:43:19.695Z,13.27
2017-08-03T02:45:48.973Z,15.23
2017-08-03T02:48:18.337Z,15.07
2017-08-03T02:50:47.597Z,20.07
2017-08-03T02:53:16.869Z,15.90
2017-08-03T02:55:46.134Z,11.47
2017-08-03T02:58:15.382Z,13.77
2017-08-03T03:00:44.657Z,20.53
2017-08-03T03:03:13.926Z,13.33
2017-08-03T03:05:43.958Z,22.53
2017-08-03T03:08:13.267Z,10.03
2017-08-03T03:10:42.535Z,10.63
2017-08-03T03:13:11.792Z,27.40
2017-08-03T03:15:41.048Z,12.53
2017-08-03T03:18:11.437Z,13.73
2017-08-03T03:20:40.690Z,16.37
2017-08-03T03:23:10.692Z,11.37
2017-08-03T03:25:39.980Z,15.97
2017-08-03T03:28:09.382Z,16.93
2017-08-03T03:30:38.629Z,9.00
2017-08-03T03:33:07.933Z,18.20
2017-08-03T03:35:37.190Z,11.73
2017-08-03T03:38:06.699Z,10.93
2017-08-03T03:40:36.025Z,13.90
2017-08-03T03:43:05.292Z,11.60
2017-08-03T03:45:35.015Z,17.30
2017-08-03T03:48:04.613Z,14.30
2017-08-03T03:50:34.070Z,25.63
2017-08-03T03:53:03.583Z,12.13
2017-08-03T03:58:08.185Z,12.97
2017-08-03T04:00:39.029Z,10.40
2017-08-03T04:03:08.305Z,18.90
2017-08-03T04:05:37.563Z,15.37
2017-08-03T04:08:06.934Z,17.63
2017-08-03T04:10:36.222Z,12.37
2017-08-03T04:13:06.250Z,15.47
2017-08-03T04:15:36.288Z,11.87
2017-08-03T04:18:05.538Z,34.03
2017-08-03T04:20:35.025Z,20.47
2017-08-03T04:23:04.337Z,16.23
2017-08-03T04:25:34.381Z,13.20
2017-08-03T04:28:03.615Z,14.33
2017-08-03T04:30:33.010Z,14.10
2017-08-03T04:33:02.280Z,19.03
2017-08-03T04:35:31.614Z,18.10
2017-08-03T04:38:00.894Z,16.07
2017-08-03T04:40:30.909Z,15.97
2017-08-03T04:43:00.329Z,15.00
2017-08-03T04:45:30.385Z,15.60
2017-08-03T04:47:59.628Z,12.27
2017-08-03T04:50:28.950Z,16.13
2017-08-03T04:52:58.207Z,16.53
2017-08-03T04:55:27.491Z,22.00
2017-08-03T04:57:56.811Z,33.33
2017-08-03T05:00:26.055Z,15.50
2017-08-03T05:02:56.094Z,13.33
2017-08-03T05:05:25.678Z,24.67
2017-08-03T05:07:55.721Z,13.90
2017-08-03T05:10:24.969Z,17.50
2017-08-03T05:12:54.421Z,24.13
2017-08-03T05:15:23.684Z,15.70
2017-08-03T05:17:52.993Z,15.57
2017-08-03T05:20:22.245Z,9.03
2017-08-03T05:22:51.536Z,13.53
2017-08-03T05:25:20.986Z,21.63
2017-08-03T05:27:50.405Z,10.23
2017-08-03T05:30:19.646Z,17.47
2017-08-03T05:32:48.921Z,17.00
2017-08-03T05:35:18.186Z,24.57
2017-08-03T05:37:47.625Z,12.47
2017-08-03T05:40:17.663Z,13.77
2017-08-03T05:42:46.921Z,14.40
2017-08-03T05:45:16.390Z,13.43
2017-08-03T05:47:45.856Z,24.43
2017-08-03T05:50:15.881Z,9.93
2017-08-03T05:52:45.141Z,10.97
2017-08-03T05:55:14.445Z,7.70
2017-08-03T05:57:43.713Z,13.27
2017-08-03T06:00:12.973Z,17.07
2017-08-03T06:02:42.459Z,9.33
2017-08-03T06:05:11.698Z,13.00
2017-08-03T06:07:40.981Z,12.30
2017-08-03T06:10:10.341Z,12.03
2017-08-03T06:12:39.613Z,14.40
2017-08-03T06:15:08.855Z,13.00
2017-08-03T06:17:38.139Z,10.80
2017-08-03T06:20:07.407Z,9.40
2017-08-03T06:22:36.677Z,11.20
2017-08-03T06:25:05.998Z,11.20
2017-08-03T06:27:35.722Z,23.87
2017-08-03T06:30:05.194Z,11.93
2017-08-03T06:32:34.510Z,18.30
2017-08-03T06:35:03.778Z,14.87
2017-08-03T06:37:33.030Z,10.63
2017-08-03T06:40:02.299Z,24.17
2017-08-03T06:42:31.559Z,14.30
2017-08-03T06:45:00.961Z,13.90
2017-08-03T06:47:30.209Z,12.20
2017-08-03T06:49:59.462Z,24.47
2017-08-03T06:52:29.102Z,14.13
2017-08-03T06:54:58.396Z,14.37
2017-08-03T06:57:27.656Z,22.30
2017-08-03T06:59:56.910Z,15.33
2017-08-03T07:02:26.347Z,22.90
2017-08-03T07:04:55.763Z,18.07
2017-08-03T07:07:25.261Z,15.40
2017-08-03T07:09:54.522Z,10.30
2017-08-03T07:12:23.790Z,20.63
2017-08-03T07:14:53.062Z,15.77
2017-08-03T07:17:22.317Z,14.27
2017-08-03T07:19:51.614Z,13.77
2017-08-03T07:22:20.892Z,20.40
2017-08-03T07:24:50.149Z,16.80
2017-08-03T07:27:19.433Z,12.33
2017-08-03T07:29:48.729Z,19.67
2017-08-03T07:32:18.008Z,12.70
2017-08-03T07:34:47.451Z,15.20
2017-08-03T07:37:16.718Z,14.17
2017-08-03T07:39:46.009Z,26.33
2017-08-03T07:42:15.292Z,21.90
2017-08-03T07:44:44.556Z,12.47
2017-08-03T07:47:13.837Z,22.70
2017-08-03T07:49:43.123Z,16.33
2017-08-03T07:52:12.378Z,19.43
2017-08-03T07:54:41.650Z,14.30
2017-08-03T07:57:11.675Z,16.60
2017-08-03T07:59:41.094Z,30.23
2017-08-03T08:02:11.295Z,17.83
2017-08-03T08:04:40.569Z,16.17
2017-08-03T08:07:09.843Z,14.30
2017-08-03T08:09:39.125Z,19.77
2017-08-03T08:12:09.365Z,17.27
2017-08-03T08:14:38.695Z,22.83
2017-08-03T08:17:07.979Z,12.83
2017-08-03T08:19:37.246Z,22.40
2017-08-03T08:22:06.653Z,16.73
2017-08-03T08:24:35.914Z,17.60
2017-08-03T08:27:05.201Z,13.70
2017-08-03T08:29:34.473Z,22.70
2017-08-03T08:32:03.869Z,16.00
2017-08-03T08:34:33.427Z,42.83
2017-08-03T08:37:02.774Z,27.07
2017-08-03T08:39:32.006Z,21.67
2017-08-03T08:42:01.335Z,14.80
2017-08-03T08:44:30.666Z,16.90
2017-08-03T08:46:59.921Z,20.40
2017-08-03T08:49:29.177Z,11.93
2017-08-03T08:51:59.267Z,15.63
2017-08-03T08:54:28.974Z,14.20
2017-08-03T08:56:58.241Z,14.87
2017-08-03T08:59:27.482Z,11.50
2017-08-03T09:01:56.745Z,11.90
2017-08-03T09:04:26.024Z,13.97
2017-08-03T09:06:55.274Z,16.20
2017-08-03T09:09:24.557Z,11.00
2017-08-03T09:11:53.893Z,15.57
2017-08-03T09:14:23.176Z,16.63
2017-08-03T09:16:52.540Z,12.60
2017-08-03T09:19:21.803Z,16.33
2017-08-03T09:21:51.853Z,12.33
2017-08-03T09:24:21.106Z,15.97
2017-08-03T09:26:50.542Z,12.70
2017-08-03T09:29:20.603Z,14.23
2017-08-03T09:31:49.862Z,17.17
2017-08-03T09:34:19.166Z,16.17
2017-08-03T09:36:48.429Z,9.53
2017-08-03T09:39:17.773Z,9.27
2017-08-03T09:41:47.043Z,10.10
2017-08-03T09:44:16.325Z,12.67
2017-08-03T09:46:45.939Z,8.83
2017-08-03T09:49:15.217Z,14.40
2017-08-03T09:51:45.238Z,10.23
2017-08-03T09:54:14.516Z,19.57
2017-08-03T09:56:43.785Z,12.17
2017-08-03T09:59:13.246Z,14.53
2017-08-03T10:01:43.273Z,26.70
2017-08-03T10:04:12.547Z,19.77
2017-08-03T10:06:41.818Z,20.70
2017-08-03T10:09:11.104Z,17.00
2017-08-03T10:11:40.398Z,13.00
2017-08-03T10:14:09.690Z,12.30
2017-08-03T10:16:38.940Z,14.50
2017-08-03T10:19:08.217Z,23.20
2017-08-03T10:21:37.461Z,15.33
2017-08-03T10:24:06.781Z,14.43
2017-08-03T10:26:36.066Z,10.33
2017-08-03T10:29:05.333Z,12.97
2017-08-03T10:31:34.617Z,14.20
2017-08-03T10:34:03.883Z,15.23
2017-08-03T10:36:33.943Z,17.63
2017-08-03T10:39:03.197Z,17.37
2017-08-03T10:41:32.498Z,11.43
2017-08-03T10:44:01.757Z,12.80
2017-08-03T10:46:31.011Z,7.90
2017-08-03T10:49:01.087Z,16.50
2017-08-03T10:51:30.334Z,6.70
2017-08-03T10:53:59.579Z,9.17
2017-08-03T10:56:28.843Z,9.23
2017-08-03T10:58:58.137Z,25.77
2017-08-03T11:01:28.188Z,8.17
2017-08-03T11:03:57.518Z,14.00
2017-08-03T11:06:27.031Z,10.90
2017-08-03T11:08:56.542Z,8.30
2017-08-03T11:11:25.793Z,9.83
2017-08-03T11:13:55.041Z,8.23
2017-08-03T11:16:24.306Z,12.13
2017-08-03T11:18:53.571Z,6.53
2017-08-03T11:21:23.603Z,8.33
2017-08-03T11:23:53.008Z,8.97
2017-08-03T11:26:22.269Z,5.90
2017-08-03T11:28:51.995Z,9.17
2017-08-03T11:31:22.030Z,6.60
2017-08-03T11:33:51.291Z,6.67
2017-08-03T11:36:20.529Z,4.67
2017-08-03T11:38:50.565Z,5.10
2017-08-03T11:41:19.879Z,10.57
2017-08-03T11:43:49.224Z,6.40
2017-08-03T11:46:18.524Z,6.47
2017-08-03T11:48:47.750Z,6.20
2017-08-03T11:51:17.017Z,6.60
2017-08-03T11:53:46.253Z,8.27
2017-08-03T11:56:16.345Z,5.03
2017-08-03T11:58:45.612Z,8.67
2017-08-03T12:01:15.588Z,5.87
2017-08-03T12:03:44.949Z,3.30
2017-08-03T12:06:14.219Z,2.67
2017-08-03T12:08:43.562Z,4.13
2017-08-03T12:11:12.803Z,7.60
2017-08-03T12:13:42.083Z,3.93
2017-08-03T12:16:11.359Z,2.77
2017-08-03T12:18:40.622Z,3.90
2017-08-03T12:21:09.872Z,3.63
2017-08-03T12:23:39.129Z,2.10
2017-08-03T12:26:08.495Z,2.67
2017-08-03T12:28:37.927Z,1.73
2017-08-03T12:31:07.194Z,2.60
2017-08-03T12:33:36.698Z,4.33
2017-08-03T12:36:06.021Z,2.73
2017-08-03T12:38:35.282Z,4.43
2017-08-03T12:41:04.631Z,9.70
2017-08-03T12:43:34.660Z,3.00
2017-08-03T12:46:03.927Z,3.50
2017-08-03T12:48:33.205Z,6.10
2017-08-03T12:51:02.488Z,7.00
2017-08-03T12:53:31.726Z,2.00
2017-08-03T12:56:00.996Z,1.87
2017-08-03T12:58:30.265Z,3.80
2017-08-03T13:00:59.529Z,2.47
2017-08-03T13:03:28.790Z,1.60
2017-08-03T13:05:58.254Z,11.77
2017-08-03T13:08:27.950Z,2.93
2017-08-03T13:10:57.210Z,2.03
2017-08-03T13:13:26.468Z,2.97
2017-08-03T13:15:56.632Z,3.13
2017-08-03T13:18:26.011Z,6.43
2017-08-03T13:20:55.265Z,2.93
2017-08-03T13:23:24.521Z,1.60
2017-08-03T13:25:53.778Z,3.37
2017-08-03T13:28:23.181Z,5.47
2017-08-03T13:30:52.470Z,1.03
2017-08-03T13:33:21.732Z,1.10
2017-08-03T13:35:51.006Z,0.90
2017-08-03T13:38:20.327Z,1.53
2017-08-03T13:40:49.568Z,2.07
2017-08-03T13:43:18.823Z,1.53
2017-08-03T13:45:48.832Z,1.53
2017-08-03T13:48:18.085Z,1.53
2017-08-03T13:50:47.348Z,1.53
2017-08-03T13:53:17.102Z,1.37
2017-08-03T13:55:46.377Z,2.33
2017-08-03T13:58:15.631Z,1.60
2017-08-03T14:00:45.665Z,1.07
2017-08-03T14:03:14.943Z,5.37
2017-08-03T14:05:44.866Z,5.90
2017-08-03T14:08:14.134Z,3.80
2017-08-03T14:10:43.411Z,4.20
2017-08-03T14:13:12.696Z,1.23
2017-08-03T14:15:42.625Z,2.53
2017-08-03T14:18:11.979Z,1.40
2017-08-03T14:20:41.228Z,5.60
2017-08-03T14:23:10.490Z,3.10
2017-08-03T14:25:40.799Z,1.20
2017-08-03T14:28:10.291Z,1.93
2017-08-03T14:30:39.562Z,1.10
2017-08-03T14:33:08.814Z,1.03
2017-08-03T14:35:38.079Z,1.30
2017-08-03T14:38:07.557Z,1.57
2017-08-03T14:40:36.812Z,1.63
2017-08-03T14:43:06.082Z,3.10
2017-08-03T14:45:35.535Z,3.73
2017-08-03T14:48:04.817Z,1.17
2017-08-03T14:50:34.113Z,1.40
2017-08-03T14:53:03.396Z,1.37
2017-08-03T14:55:32.654Z,1.30
2017-08-03T14:58:02.702Z,1.07
2017-08-03T15:00:31.955Z,2.67
2017-08-03T15:03:01.245Z,4.20
2017-08-03T15:05:30.539Z,1.70
2017-08-03T15:07:59.770Z,1.53
2017-08-03T15:10:29.805Z,1.57
2017-08-03T15:12:59.080Z,1.37
2017-08-03T15:15:28.310Z,1.00
2017-08-03T15:17:57.578Z,1.10
2017-08-03T15:20:27.599Z,2.60
2017-08-03T15:22:56.882Z,2.53
2017-08-03T15:25:26.177Z,1.40
2017-08-03T15:27:55.413Z,0.93
2017-08-03T15:30:25.503Z,2.00
2017-08-03T15:32:54.804Z,2.63
2017-08-03T15:35:24.055Z,1.30
2017-08-03T15:37:53.453Z,1.13
2017-08-03T15:40:22.708Z,1.50
2017-08-03T15:42:51.945Z,1.67
2017-08-03T15:45:21.221Z,1.10
2017-08-03T15:47:50.517Z,3.97
2017-08-03T15:50:19.764Z,1.33
2017-08-03T15:52:49.122Z,1.20
2017-08-03T15:55:18.518Z,1.30
2017-08-03T15:57:47.801Z,2.80
2017-08-03T16:00:17.103Z,3.23
2017-08-03T16:02:46.356Z,1.30
2017-08-03T16:05:15.617Z,3.90
2017-08-03T16:07:44.861Z,1.30
2017-08-03T16:10:14.155Z,1.40
2017-08-03T16:12:44.171Z,1.10
2017-08-03T16:15:13.686Z,0.90
2017-08-03T16:17:42.954Z,1.13
2017-08-03T16:20:12.233Z,2.40
2017-08-03T16:22:41.549Z,1.30
2017-08-03T16:25:10.830Z,2.00
2017-08-03T16:27:40.166Z,1.10
2017-08-03T16:30:09.410Z,8.40
2017-08-03T16:32:38.718Z,1.30
2017-08-03T16:35:08.054Z,1.87
2017-08-03T16:37:37.441Z,2.57
2017-08-03T16:40:06.717Z,1.53
2017-08-03T16:42:35.961Z,1.10
2017-08-03T16:45:05.240Z,4.63
2017-08-03T16:47:34.486Z,1.33
2017-08-03T16:50:04.511Z,0.90
2017-08-03T16:52:33.800Z,1.10
2017-08-03T16:55:03.447Z,1.27
2017-08-03T16:57:32.712Z,5.07
2017-08-03T17:00:01.978Z,1.20
2017-08-03T17:02:31.235Z,1.23
2017-08-03T17:05:00.659Z,0.93
2017-08-03T17:07:29.906Z,1.07
2017-08-03T17:09:59.188Z,3.77
2017-08-03T17:12:28.703Z,2.40
2017-08-03T17:14:58.374Z,1.10
2017-08-03T17:17:27.676Z,0.97
2017-08-03T17:19:57.022Z,4.73
2017-08-03T17:22:26.299Z,1.27
2017-08-03T17:24:55.621Z,3.17
2017-08-03T17:27:24.881Z,1.00
2017-08-03T17:29:54.372Z,1.17
2017-08-03T17:32:23.642Z,2.70
2017-08-03T17:34:52.905Z,1.60
2017-08-03T17:37:22.137Z,0.80
2017-08-03T17:39:51.405Z,2.50
2017-08-03T17:42:20.661Z,1.10
2017-08-03T17:44:49.925Z,5.40
2017-08-03T17:47:19.354Z,2.30
2017-08-03T17:49:48.589Z,0.97
2017-08-03T17:52:17.858Z,1.70
2017-08-03T17:54:47.174Z,5.17
2017-08-03T17:57:16.478Z,2.77
2017-08-03T17:59:45.897Z,5.00
2017-08-03T18:02:15.177Z,1.20
2017-08-03T18:04:45.185Z,1.40
2017-08-03T18:07:14.454Z,3.10
2017-08-03T18:09:43.799Z,1.17
2017-08-03T18:12:13.044Z,2.00
2017-08-03T18:14:42.517Z,1.27
2017-08-03T18:17:12.548Z,2.50
2017-08-03T18:19:41.925Z,1.20
2017-08-03T18:22:11.961Z,2.03
2017-08-03T18:24:41.241Z,6.33
2017-08-03T18:27:10.479Z,7.10
2017-08-03T18:29:39.724Z,2.50
2017-08-03T18:32:09.000Z,4.00
2017-08-03T18:34:38.243Z,2.30
2017-08-03T18:37:07.504Z,4.87
2017-08-03T18:39:36.750Z,8.30
2017-08-03T18:42:06.848Z,1.80
2017-08-03T18:44:36.093Z,2.30
2017-08-03T18:47:05.373Z,2.10
2017-08-03T18:49:34.810Z,3.93
2017-08-03T18:52:04.053Z,2.20
2017-08-03T18:54:33.326Z,4.00
2017-08-03T18:57:02.705Z,7.70
2017-08-03T18:59:32.838Z,10.23
2017-08-03T19:02:02.092Z,13.90
2017-08-03T19:04:31.473Z,4.50
2017-08-03T19:07:00.742Z,7.73
2017-08-03T19:09:30.134Z,7.50
2017-08-03T19:11:59.377Z,3.60
2017-08-03T19:14:29.483Z,8.03
2017-08-03T19:16:58.734Z,9.67
2017-08-03T19:19:28.783Z,2.67
2017-08-03T19:21:58.065Z,4.30
2017-08-03T19:24:27.306Z,2.97
2017-08-03T19:26:56.580Z,8.23
2017-08-03T19:29:25.850Z,2.33
2017-08-03T19:31:56.016Z,12.57
2017-08-03T19:34:25.271Z,3.93
2017-08-03T19:36:54.621Z,3.40
2017-08-03T19:39:23.885Z,1.70
2017-08-03T19:41:53.938Z,1.90
2017-08-03T19:44:23.197Z,3.67
2017-08-03T19:46:52.466Z,4.50
2017-08-03T19:49:22.153Z,4.43
2017-08-03T19:51:51.801Z,3.40
2017-08-03T19:54:21.347Z,2.97
2017-08-03T19:56:50.632Z,2.23
2017-08-03T19:59:20.705Z,4.13
2017-08-03T20:01:50.101Z,5.37
2017-08-03T20:04:19.597Z,18.17
2017-08-03T20:06:48.878Z,3.33
2017-08-03T20:12:17.949Z,2.17
2017-08-03T20:14:47.194Z,6.40
2017-08-03T20:17:16.490Z,1.70
2017-08-03T20:19:45.744Z,1.80
2017-08-03T20:22:15.152Z,2.20
2017-08-03T20:24:44.431Z,6.43
2017-08-03T20:27:13.711Z,4.77
2017-08-03T20:29:43.745Z,2.63
2017-08-03T20:32:13.076Z,5.17
2017-08-03T20:34:42.330Z,3.83
2017-08-03T20:37:11.612Z,5.70
2017-08-03T20:39:41.970Z,1.50
2017-08-03T20:42:11.230Z,5.00
2017-08-03T20:44:41.339Z,3.53
2017-08-03T20:47:10.598Z,2.50
2017-08-03T20:49:39.868Z,3.13
2017-08-03T20:52:09.135Z,1.63
2017-08-03T20:54:38.402Z,2.23
2017-08-03T20:57:07.661Z,6.33
2017-08-03T20:59:37.793Z,6.90
2017-08-03T21:02:07.823Z,5.90
2017-08-03T21:04:37.130Z,4.30
2017-08-03T21:07:06.376Z,2.00
2017-08-03T21:09:35.653Z,2.13
2017-08-03T21:12:04.937Z,1.97
2017-08-03T21:14:34.187Z,3.30
2017-08-03T21:17:03.523Z,5.63
2017-08-03T21:19:33.550Z,1.90
2017-08-03T21:22:02.911Z,1.57
2017-08-03T21:24:32.138Z,2.03
2017-08-03T21:27:01.455Z,11.93
2017-08-03T21:29:30.710Z,3.90
2017-08-03T21:32:00.020Z,2.27
2017-08-03T21:34:29.367Z,4.50
2017-08-03T21:36:58.590Z,5.77
2017-08-03T21:39:27.874Z,3.93
2017-08-03T21:41:57.244Z,6.70
2017-08-03T21:44:26.649Z,3.90
2017-08-03T21:46:55.938Z,11.00
2017-08-03T21:49:25.213Z,1.70
2017-08-03T21:51:54.457Z,16.03
2017-08-03T21:54:23.807Z,5.57
2017-08-03T21:56:53.078Z,2.33
2017-08-03T21:59:22.318Z,1.77
2017-08-03T22:01:51.677Z,4.67
2017-08-03T22:04:20.934Z,9.93
2017-08-03T22:06:50.212Z,1.70
2017-08-03T22:09:19.544Z,3.73
2017-08-03T22:11:48.831Z,5.20
2017-08-03T22:14:18.113Z,8.77
2017-08-03T22:16:47.367Z,2.07
2017-08-03T22:19:17.409Z,8.93
2017-08-03T22:21:47.182Z,1.50
2017-08-03T22:24:16.437Z,5.10
2017-08-03T22:26:45.711Z,5.07
2017-08-03T22:29:15.005Z,4.40
2017-08-03T22:31:44.280Z,9.50
2017-08-03T22:34:13.590Z,3.63
2017-08-03T22:36:42.869Z,1.87
2017-08-03T22:39:12.289Z,2.63
2017-08-03T22:41:41.550Z,3.60
2017-08-03T22:44:10.819Z,11.43
2017-08-03T22:46:40.074Z,1.73
2017-08-03T22:49:09.318Z,2.47
2017-08-03T22:51:38.640Z,4.43
2017-08-03T22:54:08.090Z,3.27
2017-08-03T22:56:37.357Z,1.60
2017-08-03T22:59:06.619Z,12.70
2017-08-03T23:01:35.851Z,7.87
2017-08-03T23:04:05.219Z,3.67
2017-08-03T23:06:34.499Z,5.63
2017-08-03T23:09:03.768Z,5.13
2017-08-03T23:11:33.050Z,1.97
2017-08-03T23:14:02.551Z,9.37
2017-08-03T23:16:31.818Z,2.03
2017-08-03T23:19:01.058Z,1.70
2017-08-03T23:21:30.321Z,3.03
2017-08-03T23:23:59.570Z,2.97
2017-08-03T23:26:28.962Z,9.17
2017-08-03T23:28:58.247Z,2.93
2017-08-03T23:31:27.517Z,4.77
2017-08-03T23:33:56.792Z,5.53
2017-08-03T23:36:26.039Z,4.90
2017-08-03T23:38:56.078Z,2.57
2017-08-03T23:41:25.564Z,2.30
2017-08-03T23:43:54.964Z,7.70
2017-08-03T23:46:24.222Z,4.07
2017-08-03T23:48:53.466Z,4.93
2017-08-03T23:51:23.315Z,3.33
2017-08-03T23:53:52.573Z,3.13
2017-08-03T23:56:21.848Z,5.50
2017-08-03T23:58:51.697Z,4.40
